Time;durP1;ratioP1;P1;durP2;ratioP2;P2;SDS_P1;SDS_P2;PMS_P1;PMS_P2;Temp;Humidity;BMP_temperature;BMP_pressure;BME280_temperature;BME280_humidity;BME280_pressure;Samples;Min_cycle;Max_cycle;Signal;HPM_P1;HPM_P2
2023/08/04 00:00:21;;;;;;;2.58;1.85;;;21.30;87.30;;;;;;4970895;28;20134;-30
2023/08/04 00:02:48;;;;;;;3.55;1.50;;;;;;;;;;4970138;28;20551;-37
2023/08/04 00:05:14;;;;;;;2.28;1.63;;;20.60;86.80;;;;;;4970416;28;20555;-30
2023/08/04 00:07:43;;;;;;;2.20;1.30;;;20.30;86.40;;;;;;4958626;28;20126;-30
2023/08/04 00:10:10;;;;;;;2.85;1.35;;;21.90;87.20;;;;;;4951491;28;20129;-30
2023/08/04 00:12:38;;;;;;;2.33;1.45;;;19.60;85.90;;;;;;4952150;28;20105;-31
2023/08/04 00:15:06;;;;;;;2.13;1.60;;;20.80;86.90;;;;;;4951073;28;20130;-31
2023/08/04 00:17:35;;;;;;;2.00;1.30;;;20.30;86.70;;;;;;4951459;28;20150;-31
2023/08/04 00:20:03;;;;;;;1.85;1.30;;;20.50;86.50;;;;;;4954703;28;20057;-30
2023/08/04 00:22:29;;;;;;;3.55;1.60;;;20.70;86.60;;;;;;4970340;28;20058;-31
2023/08/04 00:24:56;;;;;;;1.90;1.35;;;;;;;;;;4970230;28;20051;-35
2023/08/04 00:27:23;;;;;;;2.33;1.40;;;20.40;86.70;;;;;;4970522;28;20133;-30
2023/08/04 00:29:51;;;;;;;1.65;1.35;;;21.10;87.20;;;;;;4958192;28;20130;-31
2023/08/04 00:32:18;;;;;;;1.85;1.33;;;21.10;74.40;;;;;;4951148;28;20135;-30
2023/08/04 00:34:45;;;;;;;1.92;1.40;;;;;;;;;;4951109;28;20130;-34
2023/08/04 00:37:12;;;;;;;2.80;1.50;;;20.40;86.50;;;;;;4961726;28;20054;-30
2023/08/04 00:39:39;;;;;;;2.40;1.35;;;;;;;;;;4969847;28;20054;-36
2023/08/04 00:42:06;;;;;;;2.00;1.40;;;20.30;86.80;;;;;;4970221;28;20058;-30
2023/08/04 00:44:33;;;;;;;2.00;1.40;;;;;;;;;;4969825;28;20126;-37
2023/08/04 00:47:01;;;;;;;3.30;1.58;;;21.80;87.50;;;;;;4955651;28;20142;-31
2023/08/04 00:49:28;;;;;;;2.42;1.50;;;21.20;86.80;;;;;;4950703;28;20055;-32
2023/08/04 00:51:54;;;;;;;1.85;1.50;;;20.30;86.80;;;;;;4950760;28;20564;-30
2023/08/04 00:54:22;;;;;;;3.53;1.52;;;;;;;;;;4950763;28;20138;-34
2023/08/04 00:56:50;;;;;;;1.80;1.40;;;;;;;;;;4961233;28;20050;-35
2023/08/04 00:59:16;;;;;;;1.85;1.50;;;21.00;86.80;;;;;;4969914;28;20130;-31
2023/08/04 01:01:43;;;;;;;3.33;1.67;;;21.00;86.90;;;;;;4968940;28;20137;-30
2023/08/04 01:04:11;;;;;;;2.90;1.58;;;20.70;76.40;;;;;;4956638;28;20042;-32
2023/08/04 01:06:40;;;;;;;2.30;1.40;;;21.00;74.30;;;;;;4966333;28;20436;-32
2023/08/04 01:09:13;;;;;;;2.10;1.35;;;20.70;87.00;;;;;;4950592;28;20134;-31
2023/08/04 01:11:43;;;;;;;3.80;1.95;;;20.70;69.30;;;;;;4950566;28;20142;-35
2023/08/04 01:14:10;;;;;;;2.75;1.42;;;;;;;;;;4950654;28;20090;-34
2023/08/04 01:16:37;;;;;;;3.08;1.42;;;20.50;86.50;;;;;;4959853;28;20134;-30
2023/08/04 01:19:03;;;;;;;2.25;1.30;;;21.10;87.30;;;;;;4966826;28;20127;-30
2023/08/04 01:21:40;;;;;;;2.85;1.50;;;21.40;70.50;;;;;;4953932;28;20079;-33
2023/08/04 01:24:07;;;;;;;1.77;1.30;;;20.20;86.20;;;;;;4953571;28;20133;-30
2023/08/04 01:26:34;;;;;;;2.00;1.30;;;21.10;72.10;;;;;;4954037;28;20134;-31
2023/08/04 01:29:01;;;;;;;1.52;1.20;;;21.00;86.80;;;;;;4953600;28;20132;-30
2023/08/04 01:31:28;;;;;;;1.65;1.20;;;21.20;87.30;;;;;;4953869;28;20126;-31
2023/08/04 01:33:55;;;;;;;1.70;1.30;;;20.80;72.40;;;;;;4953470;28;20142;-34
2023/08/04 01:36:21;;;;;;;3.17;1.40;;;21.00;86.80;;;;;;4958558;28;20138;-31
2023/08/04 01:38:49;;;;;;;1.60;1.20;;;21.00;86.80;;;;;;4972673;28;20085;-30
2023/08/04 01:41:16;;;;;;;2.45;1.35;;;21.10;87.30;;;;;;4972828;28;20129;-31
2023/08/04 01:43:43;;;;;;;2.45;1.30;;;;;;;;;;4972710;28;20134;-35
2023/08/04 01:46:10;;;;;;;2.17;1.30;;;21.10;87.10;;;;;;4972605;28;20543;-30
2023/08/04 01:48:36;;;;;;;2.55;1.40;;;19.80;86.40;;;;;;4972749;28;20129;-31
2023/08/04 01:51:03;;;;;;;1.90;1.30;;;20.40;73.30;;;;;;4972597;28;20583;-32
2023/08/04 01:53:30;;;;;;;1.85;1.27;;;;;;;;;;4955251;28;20086;-30
2023/08/04 01:55:58;;;;;;;2.13;1.30;;;20.70;69.20;;;;;;4953277;28;20568;-35
2023/08/04 01:58:25;;;;;;;2.00;1.20;;;;;;;;;;4953371;28;20139;-35
2023/08/04 02:00:52;;;;;;;2.15;1.25;;;21.00;87.00;;;;;;4960578;28;20133;-30
2023/08/04 02:03:19;;;;;;;3.03;1.23;;;20.40;86.50;;;;;;4972130;28;20500;-30
2023/08/04 02:05:46;;;;;;;1.65;1.20;;;20.70;69.20;;;;;;4972401;28;20142;-33
2023/08/04 02:08:13;;;;;;;1.40;1.27;;;21.30;87.30;;;;;;4957120;28;20517;-30
2023/08/04 02:10:40;;;;;;;2.03;1.40;;;;;;;;;;4953204;28;20147;-35
2023/08/04 02:13:08;;;;;;;1.45;1.10;;;21.00;87.00;;;;;;4960785;28;20054;-31
2023/08/04 02:15:34;;;;;;;1.42;1.20;;;20.40;86.30;;;;;;4972239;28;20126;-30
2023/08/04 02:18:01;;;;;;;1.65;1.27;;;20.70;86.90;;;;;;4972177;28;20138;-30
2023/08/04 02:20:28;;;;;;;2.30;1.48;;;21.40;72.00;;;;;;4972107;28;20089;-33
2023/08/04 02:22:55;;;;;;;2.05;1.40;;;21.10;86.90;;;;;;4971974;28;20478;-30
2023/08/04 02:25:21;;;;;;;1.70;1.20;;;20.60;86.40;;;;;;4968340;28;20130;-30
2023/08/04 02:27:48;;;;;;;1.65;1.27;;;;;;;;;;4955823;28;20592;-34
2023/08/04 02:30:16;;;;;;;2.60;1.30;;;20.30;86.20;;;;;;4952789;28;20460;-31
2023/08/04 02:32:43;;;;;;;2.50;1.20;;;21.60;87.30;;;;;;4952595;28;20130;-32
2023/08/04 02:35:10;;;;;;;2.20;1.30;;;20.20;86.30;;;;;;4952744;28;20104;-30
2023/08/04 02:37:37;;;;;;;1.35;1.13;;;20.40;77.20;;;;;;4966415;28;20133;-31
2023/08/04 02:40:04;;;;;;;1.40;1.25;;;20.60;79.50;;;;;;4971113;28;20168;-31
2023/08/04 02:42:31;;;;;;;1.80;1.23;;;;;;;;;;4970586;28;20484;-33
2023/08/04 02:44:58;;;;;;;1.75;1.25;;;19.80;86.00;;;;;;4971839;28;20482;-30
2023/08/04 02:47:26;;;;;;;1.30;1.00;;;20.80;74.70;;;;;;4971731;28;20051;-32
2023/08/04 02:49:53;;;;;;;1.70;1.30;;;;;;;;;;4971447;28;20523;-36
2023/08/04 02:52:20;;;;;;;1.73;1.20;;;21.60;87.30;;;;;;4971688;28;20478;-30
2023/08/04 02:54:47;;;;;;;1.88;1.30;;;;;;;;;;4971773;28;20138;-35
2023/08/04 02:57:14;;;;;;;1.77;1.25;;;20.70;86.40;;;;;;4970161;28;20125;-30
2023/08/04 02:59:40;;;;;;;1.83;1.35;;;19.50;85.90;;;;;;4971446;28;20141;-31
2023/08/04 03:02:08;;;;;;;1.50;1.08;;;;;;;;;;4971465;28;20133;-33
2023/08/04 03:04:36;;;;;;;2.22;1.10;;;20.80;86.50;;;;;;4971649;28;20082;-31
2023/08/04 03:07:02;;;;;;;1.83;1.20;;;20.40;86.70;;;;;;4964811;28;20449;-30
2023/08/04 03:09:29;;;;;;;2.80;1.35;;;;;;;;;;4961097;28;20104;-36
2023/08/04 03:11:56;;;;;;;1.63;1.25;;;20.70;86.70;;;;;;4971517;28;20131;-30
2023/08/04 03:14:23;;;;;;;1.60;1.13;;;20.20;70.80;;;;;;4957981;28;20078;-31
2023/08/04 03:16:50;;;;;;;2.47;1.30;;;20.50;68.90;;;;;;4952083;28;20127;-33
2023/08/04 03:19:17;;;;;;;1.75;1.30;;;20.40;86.80;;;;;;4952232;28;20086;-30
2023/08/04 03:21:45;;;;;;;1.50;1.20;;;20.20;81.50;;;;;;4951967;28;20058;-31
2023/08/04 03:24:12;;;;;;;2.67;1.20;;;20.70;80.10;;;;;;4951868;28;20083;-31
2023/08/04 03:26:39;;;;;;;1.48;1.10;;;20.10;86.50;;;;;;4951901;28;20572;-31
2023/08/04 03:29:05;;;;;;;2.13;1.30;;;19.40;85.90;;;;;;4951672;28;20083;-31
2023/08/04 03:31:32;;;;;;;1.63;1.20;;;20.70;75.70;;;;;;4953100;28;20058;-32
2023/08/04 03:33:59;;;;;;;2.10;1.17;;;20.00;86.20;;;;;;4956794;28;20130;-30
2023/08/04 03:36:26;;;;;;;1.52;1.20;;;20.80;82.30;;;;;;4958996;28;20123;-30
2023/08/04 03:38:54;;;;;;;2.25;1.27;;;20.80;70.70;;;;;;4961467;28;20059;-32
2023/08/04 03:41:21;;;;;;;1.52;1.20;;;;;;;;;;4959159;28;20146;-35
2023/08/04 03:43:48;;;;;;;1.42;1.15;;;;;;;;;;4958872;28;20121;-32
2023/08/04 03:46:15;;;;;;;2.70;1.30;;;;;;;;;;4968298;28;20129;-33
2023/08/04 03:48:41;;;;;;;1.48;1.20;;;20.20;84.10;;;;;;4964198;28;20137;-31
2023/08/04 03:51:08;;;;;;;1.55;1.08;;;20.70;86.80;;;;;;4969370;28;20131;-31
2023/08/04 03:53:35;;;;;;;3.35;1.30;;;;;;;;;;4955010;28;20051;-32
2023/08/04 03:56:04;;;;;;;2.05;1.15;;;20.80;87.00;;;;;;4959792;28;20556;-30
2023/08/04 03:58:30;;;;;;;2.58;1.10;;;20.70;86.40;;;;;;4960408;28;20142;-30
2023/08/04 04:00:57;;;;;;;2.22;1.30;;;19.80;76.60;;;;;;4961757;28;20094;-34
2023/08/04 04:03:24;;;;;;;1.42;1.10;;;20.10;86.50;;;;;;4974574;28;20910;-30
2023/08/04 04:05:51;;;;;;;2.10;1.30;;;21.00;76.30;;;;;;4963018;28;20133;-30
2023/08/04 04:08:17;;;;;;;1.73;1.02;;;20.40;73.90;;;;;;4960898;28;20150;-32
2023/08/04 04:10:44;;;;;;;1.70;1.10;;;20.60;86.70;;;;;;4961235;28;20131;-30
2023/08/04 04:13:12;;;;;;;1.88;1.10;;;20.30;71.50;;;;;;4960394;28;20130;-29
2023/08/04 04:15:39;;;;;;;1.70;1.20;;;20.30;86.60;;;;;;4959631;28;20122;-30
2023/08/04 04:18:06;;;;;;;1.58;1.20;;;;;;;;;;4960907;28;20125;-34
2023/08/04 04:20:32;;;;;;;1.95;1.30;;;20.50;86.30;;;;;;4975428;28;20142;-30
2023/08/04 04:22:59;;;;;;;1.45;1.10;;;20.90;86.80;;;;;;4959193;28;20134;-30
2023/08/04 04:25:26;;;;;;;2.08;1.30;;;20.30;74.50;;;;;;4960486;28;20122;-31
2023/08/04 04:27:52;;;;;;;1.20;1.05;;;21.10;86.60;;;;;;4960973;28;20130;-31
2023/08/04 04:30:21;;;;;;;2.28;1.13;;;20.50;86.60;;;;;;4959053;28;20051;-30
2023/08/04 04:32:47;;;;;;;1.58;1.30;;;19.70;85.90;;;;;;4960298;28;20129;-30
2023/08/04 04:35:14;;;;;;;1.88;1.25;;;;;;;;;;4962785;28;20126;-34
2023/08/04 04:37:41;;;;;;;1.42;1.13;;;20.10;86.10;;;;;;4969148;28;20138;-30
2023/08/04 04:40:09;;;;;;;1.67;1.17;;;20.50;77.60;;;;;;4969951;28;20715;-30
2023/08/04 04:42:35;;;;;;;1.80;1.10;;;21.10;87.10;;;;;;4969950;28;20578;-38
2023/08/04 04:45:03;;;;;;;1.88;1.15;;;;;;;;;;4970316;28;20134;-33
2023/08/04 04:47:31;;;;;;;1.50;0.90;;;20.50;86.30;;;;;;4970043;28;20138;-35
2023/08/04 04:49:58;;;;;;;1.35;1.10;;;20.40;86.70;;;;;;4971216;28;20492;-36
2023/08/04 04:52:33;;;;;;;1.63;0.90;;;20.40;68.80;;;;;;4971631;28;20138;-34
2023/08/04 04:55:00;;;;;;;2.03;1.23;;;20.30;86.40;;;;;;4973799;28;20129;-38
2023/08/04 04:57:27;;;;;;;1.88;1.13;;;20.00;71.50;;;;;;4973606;28;20086;-35
2023/08/04 04:59:54;;;;;;;1.38;1.10;;;;;;;;;;4972848;28;20126;-33
2023/08/04 05:02:21;;;;;;;1.30;1.10;;;;;;;;;;4964732;28;20133;-36
2023/08/04 05:04:49;;;;;;;1.00;0.90;;;20.30;86.80;;;;;;4958438;28;20098;-36
2023/08/04 05:07:16;;;;;;;2.50;1.20;;;20.20;86.60;;;;;;4965650;28;20125;-39
2023/08/04 05:09:42;;;;;;;1.33;1.10;;;20.70;86.90;;;;;;4973406;28;20474;-37
2023/08/04 05:12:09;;;;;;;1.70;1.20;;;20.20;71.20;;;;;;4973321;28;20139;-36
2023/08/04 05:14:36;;;;;;;1.92;1.00;;;;;;;;;;4972881;28;20579;-38
2023/08/04 05:17:03;;;;;;;3.13;1.15;;;20.40;86.70;;;;;;4973231;28;20674;-36
2023/08/04 05:19:30;;;;;;;2.28;1.17;;;21.40;87.20;;;;;;4964890;28;20120;-36
2023/08/04 05:21:58;;;;;;;2.08;1.02;;;20.40;69.00;;;;;;4953818;28;20134;-36
2023/08/04 05:24:25;;;;;;;1.42;1.05;;;20.40;87.00;;;;;;4953817;28;20150;-30
2023/08/04 05:26:52;;;;;;;1.10;1.00;;;20.60;72.20;;;;;;4963090;28;20089;-33
2023/08/04 05:29:18;;;;;;;1.42;1.10;;;20.40;86.90;;;;;;4973009;28;20157;-30
2023/08/04 05:31:46;;;;;;;1.63;1.00;;;20.70;86.80;;;;;;4972997;28;20138;-30
2023/08/04 05:34:12;;;;;;;1.58;1.20;;;20.60;86.60;;;;;;4972722;28;20487;-32
2023/08/04 05:36:39;;;;;;;2.17;1.20;;;20.40;86.70;;;;;;4964770;28;20126;-31
2023/08/04 05:39:07;;;;;;;1.40;1.10;;;20.30;69.00;;;;;;4972711;28;20571;-36
2023/08/04 05:41:34;;;;;;;1.55;1.00;;;;;;;;;;4972668;28;20245;-34
2023/08/04 05:44:01;;;;;;;1.92;1.10;;;20.20;86.90;;;;;;4972528;28;20467;-30
2023/08/04 05:46:28;;;;;;;1.33;1.05;;;20.20;86.50;;;;;;4972674;28;20173;-30
2023/08/04 05:48:55;;;;;;;1.10;1.00;;;20.30;86.30;;;;;;4972508;28;20124;-31
2023/08/04 05:51:22;;;;;;;1.40;1.00;;;19.90;86.70;;;;;;4970224;28;20142;-30
2023/08/04 05:53:49;;;;;;;2.25;1.10;;;;;;;;;;4953443;29;20138;-33
2023/08/04 05:56:17;;;;;;;1.33;1.10;;;20.40;87.00;;;;;;4953416;29;20145;-30
2023/08/04 05:58:43;;;;;;;1.52;1.08;;;20.60;86.80;;;;;;4965770;28;20142;-30
2023/08/04 06:01:10;;;;;;;1.50;0.90;;;;;;;;;;4972089;28;20481;-31
2023/08/04 06:03:37;;;;;;;1.55;1.05;;;20.70;87.00;;;;;;4972557;28;20129;-31
2023/08/04 06:06:04;;;;;;;1.15;1.00;;;20.40;86.80;;;;;;4972578;28;20142;-31
2023/08/04 06:08:30;;;;;;;1.25;1.10;;;19.20;86.10;;;;;;4955012;28;20061;-31
2023/08/04 06:10:59;;;;;;;1.48;1.08;;;19.80;76.10;;;;;;4953050;28;20485;-31
2023/08/04 06:13:27;;;;;;;1.13;1.00;;;20.00;86.40;;;;;;4952848;28;20134;-31
2023/08/04 06:15:54;;;;;;;0.98;0.90;;;20.80;82.50;;;;;;4953054;28;20567;-32
2023/08/04 06:18:20;;;;;;;1.02;0.93;;;20.80;86.90;;;;;;4952908;28;20049;-32
2023/08/04 06:20:50;;;;;;;1.25;1.05;;;;;;;;;;4970662;28;20130;-32
2023/08/04 06:23:17;;;;;;;1.15;0.90;;;20.40;86.70;;;;;;4971310;28;20075;-31
2023/08/04 06:25:43;;;;;;;0.90;0.90;;;20.50;73.30;;;;;;4971364;28;20535;-31
2023/08/04 06:28:10;;;;;;;1.10;1.00;;;19.80;86.60;;;;;;4971994;28;20129;-30
2023/08/04 06:30:38;;;;;;;1.42;1.00;;;20.60;87.10;;;;;;4953938;28;20552;-31
2023/08/04 06:33:05;;;;;;;1.65;1.13;;;20.30;86.50;;;;;;4961323;28;20100;-30
2023/08/04 06:35:32;;;;;;;1.38;0.98;;;;;;;;;;4972161;28;20479;-31
2023/08/04 06:37:59;;;;;;;1.30;1.00;;;20.30;87.00;;;;;;4971436;28;20131;-31
2023/08/04 06:40:27;;;;;;;1.10;1.00;;;;;;;;;;4971041;28;20062;-31
2023/08/04 06:42:53;;;;;;;2.65;1.00;;;21.00;87.10;;;;;;4952341;29;20662;-30
2023/08/04 06:45:20;;;;;;;3.08;0.93;;;20.80;75.90;;;;;;4952615;28;20138;-31
2023/08/04 06:47:48;;;;;;;1.17;1.08;;;20.40;69.00;;;;;;4952570;28;20050;-31
2023/08/04 06:50:15;;;;;;;1.73;1.00;;;19.90;86.30;;;;;;4959910;28;20145;-31
2023/08/04 06:52:42;;;;;;;1.25;1.00;;;;;;;;;;4969907;28;20093;-33
2023/08/04 06:55:09;;;;;;;1.25;1.10;;;21.50;86.30;;;;;;4957332;28;20569;-31
2023/08/04 06:57:36;;;;;;;1.48;1.10;;;;;;;;;;4956302;28;20125;-35
2023/08/04 07:00:04;;;;;;;1.17;1.08;;;20.90;69.30;;;;;;4971159;28;20584;-31
2023/08/04 07:02:31;;;;;;;1.58;1.27;;;20.20;82.10;;;;;;4951945;29;20504;-31
2023/08/04 07:04:59;;;;;;;1.75;1.05;;;21.20;87.60;;;;;;4952533;28;20089;-30
2023/08/04 07:07:26;;;;;;;2.25;1.08;;;20.80;87.00;;;;;;4962242;28;20130;-30
2023/08/04 07:09:53;;;;;;;2.05;1.10;;;20.00;87.00;;;;;;4968045;28;20126;-30
2023/08/04 07:12:19;;;;;;;1.40;1.10;;;20.40;86.70;;;;;;4953250;28;20523;-31
2023/08/04 07:14:46;;;;;;;2.58;1.15;;;21.50;87.50;;;;;;4962378;28;20134;-31
2023/08/04 07:17:13;;;;;;;1.92;1.20;;;;;;;;;;4971414;28;20134;-33
2023/08/04 07:19:40;;;;;;;2.35;0.80;;;20.60;86.90;;;;;;4971164;28;20583;-31
2023/08/04 07:22:08;;;;;;;1.33;0.95;;;20.20;86.80;;;;;;4958054;28;20141;-30
2023/08/04 07:24:35;;;;;;;2.22;0.90;;;;;;;;;;4951870;28;20079;-30
2023/08/04 07:27:02;;;;;;;1.17;1.05;;;20.80;84.10;;;;;;4952188;28;20131;-30
2023/08/04 07:29:33;;;;;;;2.00;1.05;;;20.40;87.00;;;;;;4952131;28;20109;-31
2023/08/04 07:31:59;;;;;;;2.53;1.20;;;20.00;72.80;;;;;;4961822;28;20061;-31
2023/08/04 07:34:26;;;;;;;1.83;1.20;;;20.80;84.20;;;;;;4962626;28;20127;-31
2023/08/04 07:36:53;;;;;;;1.67;1.00;;;21.10;87.20;;;;;;4960813;28;20205;-30
2023/08/04 07:39:21;;;;;;;1.50;1.05;;;20.50;69.40;;;;;;4951547;28;20105;-32
2023/08/04 07:41:48;;;;;;;2.80;0.90;;;20.50;69.40;;;;;;4951738;28;20054;-32
2023/08/04 07:44:14;;;;;;;1.27;1.00;;;20.90;87.10;;;;;;4951527;28;20150;-30
2023/08/04 07:46:41;;;;;;;1.55;1.15;;;20.50;87.00;;;;;;4951789;28;20130;-30
2023/08/04 07:49:08;;;;;;;1.73;1.10;;;20.20;74.40;;;;;;4951824;28;20134;-31
2023/08/04 07:51:35;;;;;;;2.30;1.00;;;20.50;87.00;;;;;;4952161;28;20133;-30
2023/08/04 07:54:01;;;;;;;2.70;1.20;;;19.60;86.70;;;;;;4951769;28;20150;-31
2023/08/04 07:56:33;;;;;;;4.68;1.25;;;20.60;69.70;;;;;;4951775;28;20089;-32
2023/08/04 07:59:00;;;;;;;3.00;1.20;;;;;;;;;;4951370;28;20451;-33
2023/08/04 08:01:27;;;;;;;4.03;1.20;;;20.50;87.40;;;;;;4951595;28;20075;-30
2023/08/04 08:03:54;;;;;;;1.95;1.10;;;;;;;;;;4951282;28;20066;-32
2023/08/04 08:06:21;;;;;;;1.23;1.13;;;20.30;87.20;;;;;;4953742;28;20079;-30
2023/08/04 08:08:47;;;;;;;2.13;1.30;;;20.20;87.20;;;;;;4970487;28;20551;-30
2023/08/04 08:11:15;;;;;;;2.42;1.20;;;;;;;;;;4970561;28;20130;-31
2023/08/04 08:13:43;;;;;;;2.20;1.10;;;20.60;69.80;;;;;;4970540;28;20082;-30
2023/08/04 08:16:10;;;;;;;3.08;1.00;;;20.90;87.60;;;;;;4969828;28;20583;-38
2023/08/04 08:18:37;;;;;;;2.90;1.20;;;;;;;;;;4970288;28;20139;-33
2023/08/04 08:21:06;;;;;;;2.33;1.20;;;20.20;87.10;;;;;;4965678;28;20089;-36
2023/08/04 08:23:33;;;;;;;1.85;1.15;;;;;;;;;;4958619;28;20154;-33
2023/08/04 08:26:00;;;;;;;4.00;1.52;;;19.70;86.70;;;;;;4953658;28;20135;-39
2023/08/04 08:28:27;;;;;;;2.47;1.20;;;21.50;88.00;;;;;;4950987;29;20131;-36
2023/08/04 08:30:55;;;;;;;1.40;1.02;;;20.70;79.50;;;;;;4951001;29;20134;-36
2023/08/04 08:33:21;;;;;;;1.55;0.98;;;20.80;77.40;;;;;;4950795;29;20138;-37
2023/08/04 08:35:48;;;;;;;2.05;1.20;;;20.80;74.80;;;;;;4951145;29;20121;-38
2023/08/04 08:38:15;;;;;;;2.25;1.17;;;21.00;87.60;;;;;;4951207;29;20058;-40
2023/08/04 08:40:42;;;;;;;1.63;1.00;;;21.70;74.50;;;;;;4964748;28;20588;-34
2023/08/04 08:43:08;;;;;;;1.77;1.10;;;20.90;87.40;;;;;;4970112;28;20133;-35
2023/08/04 08:45:36;;;;;;;3.22;1.48;;;;;;;;;;4970190;28;20062;-32
2023/08/04 08:48:04;;;;;;;1.52;1.13;;;20.80;87.00;;;;;;4958340;28;20138;-35
2023/08/04 08:50:31;;;;;;;1.25;1.00;;;20.50;87.30;;;;;;4970235;28;20138;-35
2023/08/04 08:52:59;;;;;;;1.73;1.23;;;20.60;70.60;;;;;;4969525;28;20089;-37
2023/08/04 08:55:27;;;;;;;2.35;1.20;;;20.70;69.50;;;;;;4965655;28;20128;-35
2023/08/04 08:57:54;;;;;;;2.25;1.13;;;21.10;82.90;;;;;;4952779;28;20130;-36
2023/08/04 09:00:22;;;;;;;2.00;1.30;;;20.70;85.10;;;;;;4969908;28;20129;-38
2023/08/04 09:02:49;;;;;;;3.15;1.20;;;;;;;;;;4968164;28;20055;-35
2023/08/04 09:05:17;;;;;;;1.98;1.17;;;20.50;87.20;;;;;;4959657;28;20129;-35
2023/08/04 09:07:44;;;;;;;1.60;1.20;;;;;;;;;;4961420;28;20055;-34
2023/08/04 09:10:11;;;;;;;1.83;1.35;;;20.70;84.00;;;;;;4957960;28;20130;-36
2023/08/04 09:12:37;;;;;;;1.50;1.20;;;20.50;72.90;;;;;;4959530;28;20135;-37
2023/08/04 09:15:05;;;;;;;2.70;1.30;;;;;;;;;;4958895;28;20185;-33
2023/08/04 09:17:33;;;;;;;1.48;1.05;;;20.60;87.10;;;;;;4959862;28;20127;-38
2023/08/04 09:20:00;;;;;;;1.27;1.00;;;20.80;87.30;;;;;;4958608;28;20055;-36
2023/08/04 09:22:28;;;;;;;1.25;1.10;;;20.80;69.60;;;;;;4963000;28;20564;-35
2023/08/04 09:24:56;;;;;;;1.75;1.27;;;18.70;68.60;;;;;;4968235;28;20583;-35
2023/08/04 09:27:34;;;;;;;2.70;1.20;;;20.80;69.60;;;;;;4968365;28;20596;-34
2023/08/04 09:30:01;;;;;;;3.67;1.20;;;20.80;69.60;;;;;;4969514;28;20112;-38
2023/08/04 09:32:29;;;;;;;2.08;1.15;;;20.70;87.30;;;;;;4969553;28;20394;-38
2023/08/04 09:35:00;;;;;;;2.10;1.10;;;20.50;76.20;;;;;;4969839;28;20089;-35
2023/08/04 09:37:28;;;;;;;2.45;1.20;;;20.50;86.80;;;;;;4968198;28;20134;-35
2023/08/04 09:40:00;;;;;;;1.55;1.00;;;21.20;87.20;;;;;;4953089;28;20051;-39
2023/08/04 09:42:27;;;;;;;2.67;1.27;;;20.80;86.80;;;;;;4960232;28;20055;-35
2023/08/04 09:44:54;;;;;;;1.48;1.05;;;;;;;;;;4960851;28;20129;-37
2023/08/04 09:47:24;;;;;;;2.05;1.00;;;20.80;69.50;;;;;;4953550;28;20101;-36
2023/08/04 09:49:51;;;;;;;1.50;1.10;;;20.40;69.70;;;;;;4953474;28;20130;-36
2023/08/04 09:52:24;;;;;;;1.70;1.10;;;20.80;76.40;;;;;;4953028;28;20129;-33
2023/08/04 09:54:53;;;;;;;1.20;1.05;;;20.50;86.70;;;;;;4953536;28;20083;-36
2023/08/04 09:57:21;;;;;;;1.77;1.00;;;20.60;72.10;;;;;;4967084;28;20150;-36
2023/08/04 09:59:48;;;;;;;2.13;1.27;;;20.90;69.40;;;;;;4972654;28;20051;-33
2023/08/04 10:02:15;;;;;;;2.50;1.00;;;21.50;87.10;;;;;;4972293;28;20062;-35
2023/08/04 10:04:42;;;;;;;1.65;1.20;;;;;;;;;;4972535;28;20154;-38
2023/08/04 10:07:09;;;;;;;2.50;1.10;;;20.90;86.30;;;;;;4962296;28;20482;-38
2023/08/04 10:09:35;;;;;;;2.33;1.20;;;21.50;80.50;;;;;;4959456;28;20048;-34
2023/08/04 10:12:04;;;;;;;2.15;1.20;;;21.50;86.00;;;;;;4953063;28;20663;-36
2023/08/04 10:14:31;;;;;;;2.65;1.20;;;;;;;;;;4953115;28;20130;-36
2023/08/04 10:16:58;;;;;;;1.15;1.00;;;22.30;86.50;;;;;;4955412;28;20082;-38
2023/08/04 10:19:24;;;;;;;1.65;1.20;;;21.40;71.20;;;;;;4962311;28;20052;-34
2023/08/04 10:21:51;;;;;;;2.85;1.10;;;21.00;85.50;;;;;;4960029;28;20587;-36
2023/08/04 10:24:20;;;;;;;3.15;1.20;;;21.20;85.90;;;;;;4962285;28;20138;-37
2023/08/04 10:26:47;;;;;;;1.10;1.00;;;;;;;;;;4971573;28;20055;-33
2023/08/04 10:29:15;;;;;;;1.67;0.90;;;21.30;85.80;;;;;;4971513;28;20066;-39
2023/08/04 10:31:51;;;;;;;1.48;0.98;;;22.00;86.20;;;;;;4962582;28;20081;-36
2023/08/04 10:34:23;;;;;;;2.22;1.13;;;21.00;85.70;;;;;;4955250;28;20133;-37
2023/08/04 10:37:05;;;;;;;3.50;0.93;;;21.20;85.80;;;;;;4959818;28;20476;-35
2023/08/04 10:39:32;;;;;;;1.42;1.00;;;21.40;68.10;;;;;;4962263;28;20059;-37
2023/08/04 10:42:00;;;;;;;2.03;1.10;;;21.40;68.00;;;;;;4960372;28;20130;-35
2023/08/04 10:44:30;;;;;;;1.20;1.00;;;22.50;86.00;;;;;;4958594;28;20058;-38
2023/08/04 10:47:01;;;;;;;1.73;1.00;;;21.30;85.00;;;;;;4960983;28;20046;-37
2023/08/04 10:49:28;;;;;;;1.50;1.00;;;22.00;72.90;;;;;;4962698;28;20447;-38
2023/08/04 10:51:55;;;;;;;1.60;0.98;;;;;;;;;;4960763;28;20130;-35
2023/08/04 10:54:22;;;;;;;2.45;0.90;;;;;;;;;;4964567;28;20172;-33
2023/08/04 10:56:48;;;;;;;1.65;1.08;;;21.70;85.40;;;;;;4958234;28;20130;-35
2023/08/04 10:59:15;;;;;;;1.10;1.00;;;20.70;84.50;;;;;;4962107;28;20126;-38
2023/08/04 11:01:43;;;;;;;1.80;1.00;;;20.30;71.90;;;;;;4961065;28;20457;-37
2023/08/04 11:04:10;;;;;;;1.10;0.95;;;;;;;;;;4961004;28;20126;-36
2023/08/04 11:06:38;;;;;;;1.80;1.33;;;21.40;68.00;;;;;;4962380;28;20050;-35
2023/08/04 11:09:05;;;;;;;1.42;1.10;;;21.90;85.60;;;;;;4960994;28;20126;-38
2023/08/04 11:11:31;;;;;;;1.65;1.10;;;20.70;85.10;;;;;;4961031;28;20078;-38
2023/08/04 11:13:59;;;;;;;1.52;1.10;;;;;;;;;;4957923;28;20083;-34
2023/08/04 11:16:25;;;;;;;2.35;1.00;;;21.70;85.70;;;;;;4958986;28;20130;-35
2023/08/04 11:18:54;;;;;;;2.67;1.10;;;21.40;68.00;;;;;;4971148;28;20572;-34
2023/08/04 11:21:21;;;;;;;5.25;1.10;;;;;;;;;;4961314;28;20048;-35
2023/08/04 11:23:49;;;;;;;4.15;1.10;;;21.50;85.10;;;;;;4964077;28;20134;-39
2023/08/04 11:26:16;;;;;;;1.55;1.00;;;;;;;;;;4961034;28;20050;-35
2023/08/04 11:28:43;;;;;;;2.30;1.08;;;21.90;79.30;;;;;;4966152;28;20057;-39
2023/08/04 11:31:10;;;;;;;2.35;1.00;;;21.50;85.20;;;;;;4971384;28;20149;-38
2023/08/04 11:33:37;;;;;;;3.45;1.15;;;;;;;;;;4971323;28;20116;-38
2023/08/04 11:36:06;;;;;;;3.28;1.10;;;21.30;84.50;;;;;;4959972;28;20543;-37
2023/08/04 11:38:33;;;;;;;1.90;1.10;;;;;;;;;;4983732;28;20078;-36
2023/08/04 11:41:00;;;;;;;2.35;1.17;;;21.30;84.50;;;;;;4951672;29;20588;-37
2023/08/04 11:43:27;;;;;;;1.95;1.13;;;21.00;71.10;;;;;;4951546;28;20130;-37
2023/08/04 11:45:55;;;;;;;1.92;1.20;;;21.50;68.20;;;;;;4951740;28;20131;-39
2023/08/04 11:48:22;;;;;;;2.90;1.20;;;20.70;72.50;;;;;;4961953;28;20071;-35
2023/08/04 11:50:49;;;;;;;3.47;1.10;;;21.70;70.50;;;;;;4961183;28;20055;-34
2023/08/04 11:53:17;;;;;;;1.83;1.00;;;21.70;73.80;;;;;;4961295;28;20072;-38
2023/08/04 11:55:55;;;;;;;1.42;1.05;;;21.60;82.30;;;;;;4961053;28;20046;-35
2023/08/04 11:58:30;;;;;;;3.33;1.20;;;21.50;68.00;;;;;;4959646;28;20070;-35
2023/08/04 12:00:56;;;;;;;1.27;1.10;;;21.40;85.10;;;;;;4959674;28;20885;-39
2023/08/04 12:03:23;;;;;;;2.40;1.23;;;21.10;85.10;;;;;;4961591;28;20050;-38
2023/08/04 12:05:50;;;;;;;2.22;1.10;;;;;;;;;;4957691;28;20122;-37
2023/08/04 12:08:18;;;;;;;1.90;1.00;;;21.50;68.20;;;;;;4955520;28;20047;-34
2023/08/04 12:10:45;;;;;;;2.65;1.27;;;20.40;81.00;;;;;;4952646;28;20138;-36
2023/08/04 12:13:33;;;;;;;3.35;1.20;;;21.70;85.80;;;;;;4970199;28;20057;-36
2023/08/04 12:16:00;;;;;;;2.53;1.13;;;;;;;;;;4970876;28;20069;-36
2023/08/04 12:18:28;;;;;;;2.10;1.00;;;22.00;85.80;;;;;;4970606;28;20125;-35
2023/08/04 12:20:56;;;;;;;3.08;1.15;;;;;;;;;;4970583;28;20055;-37
2023/08/04 12:23:24;;;;;;;4.63;1.60;;;21.90;85.30;;;;;;4970515;28;20407;-35
2023/08/04 12:25:51;;;;;;;3.38;1.20;;;21.10;85.30;;;;;;4963821;28;20082;-37
2023/08/04 12:28:18;;;;;;;3.67;1.80;;;21.50;85.20;;;;;;4951330;29;20134;-39
2023/08/04 12:30:45;;;;;;;1.73;1.23;;;;;;;;;;4950951;29;20051;-33
2023/08/04 12:33:11;;;;;;;3.95;1.30;;;21.10;84.90;;;;;;4960867;28;20139;-37
2023/08/04 12:35:38;;;;;;;3.38;1.27;;;21.50;85.20;;;;;;4970457;28;20125;-34
2023/08/04 12:38:05;;;;;;;2.78;1.20;;;;;;;;;;4969097;28;20134;-34
2023/08/04 12:40:33;;;;;;;5.15;1.30;;;21.50;68.20;;;;;;4968104;28;20137;-36
2023/08/04 12:43:00;;;;;;;3.17;1.27;;;21.30;85.30;;;;;;4970010;28;20577;-36
2023/08/04 12:45:27;;;;;;;2.15;1.33;;;;;;;;;;4970179;28;20508;-33
2023/08/04 12:47:54;;;;;;;2.63;1.30;;;21.20;85.40;;;;;;4968484;28;20480;-36
2023/08/04 12:50:20;;;;;;;2.45;1.40;;;21.50;85.30;;;;;;4970205;28;20134;-39
2023/08/04 12:52:47;;;;;;;2.90;1.42;;;;;;;;;;4963301;28;20094;-36
2023/08/04 12:55:14;;;;;;;3.13;1.30;;;21.70;85.00;;;;;;4950728;28;20122;-36
2023/08/04 12:57:42;;;;;;;3.38;1.35;;;21.50;80.50;;;;;;4960762;28;20055;-35
2023/08/04 13:00:10;;;;;;;3.78;1.60;;;21.30;85.30;;;;;;4960020;28;20173;-39
2023/08/04 13:02:37;;;;;;;2.88;1.40;;;22.00;85.60;;;;;;4958961;28;20047;-35
2023/08/04 13:05:04;;;;;;;3.72;1.38;;;;;;;;;;4961836;28;20137;-35
2023/08/04 13:07:31;;;;;;;4.50;1.80;;;22.20;70.80;;;;;;4958597;28;20126;-36